AirNav   Air Wisconsin pilot careers
 
 1448 users online  

D71 Beaver Lake Seaplane Base
Big Lake, Alaska, USA

GOING TO BIG LAKE?


FAA INFORMATION EFFECTIVE 31 JANUARY 2019

Location

FAA Identifier: D71
Lat/Long: 61-34-30.5000N / 149-50-51.6000W
61-34.508333N / 149-50.860000W
61.5751389 / -149.8476667
(estimated)
Elevation: 150 ft. / 46 m (estimated)
From city: 4 miles NE of BIG LAKE, AK
Time zone: UTC -9 (UTC -8 during Daylight Saving Time)
Zip code: 99652

Seaplane Base Operations

Seaplane Base use: Open to the public
Activation date: 05/2003
Control tower: no
ARTCC: ANCHORAGE CENTER
FSS: KENAI FLIGHT SERVICE STATION [907-283-8469]
NOTAMs facility: ENA (NOTAM-D service available)
Attendance: UNATNDD
Segmented circle: no

Seaplane Base Communications

CTAF/UNICOM: 122.8
WX AWOS-3P at IYS (9 nm E): 135.25 (907-373-3801)
WX AWOS-3P at BCV (14 nm SE): 135.55 (907-688-0826)
WX AWOS-3 at FRN (19 nm S): PHONE 907-384-0132

Nearby radio navigation aids

VOR radial/distance  VOR name  Freq  Var
BGQr065/3.4BIG LAKE VORTAC112.5019E
TEDr350/24.6ANCHORAGE VOR/DME113.1518E

 
NDB name  Hdg/Dist  Freq  Var  ID
CAMPBELL LAKE357/24.933816ECMQ -.-. -- --.-

Seaplane Base Services

Runway Information

Runway 1W/19W

Dimensions: 5000 x 400 ft. / 1524 x 122 m
Surface: water
RUNWAY 1W  RUNWAY 19W
Traffic pattern: leftleft

Seaplane Base Ownership and Management from official FAA records

Ownership: Publicly-owned
Owner: STATE OF ALASKA, DNR
550 W 7TH AVE SUITE 900
ANCHORAGE, AK 99501-3577
Phone 907-269-8400
Manager: BILLY CRANFORD
CRANFORD AVIATION OF ALASKA, 14772 WEST SHORELINE DR
WASILLA, AK 99623
Phone 907-892-7575

Seaplane Base Operational Statistics

Aircraft based on the field: 6
Single engine airplanes: 6
    
Aircraft operations: avg 36/month *
93% local general aviation
7% air taxi
* for 12-month period ending 31 December 2013

Additional Remarks

PUB ACCESS TO SW LAKE SHORE AND LIMITED PUB ACCESS TO NE LAKE SHORE. NO SVC OF ANY TYPE AVBL TO TRAN ACFT.
WX CAMERA AVBL ON INTERNET AT HTTP://AVCAMS.FAA.GOV
WATCH FOR PERSONAL WATERCRAFT.

Instrument Procedures

There are no published instrument procedures at D71.

Some nearby airports with instrument procedures:

PAGQ - Big Lake Airport (3 nm S)
PAWS - Wasilla Airport (9 nm E)
PAUO - Willow Airport (12 nm NW)
PAFR - Bryant Army Airfield Heliport (19 nm S)
PAED - Elmendorf Air Force Base (19 nm S)
 
Loc | Ops | Rwys | IFR | FBO | Links
Com | Nav | Svcs | Stats | Notes

Crowley
 
Area around D71 (Beaver Lake Seaplane Base)
 
Road maps at: MapQuest Bing Google
 
Aerial photo
No photo
 
Sectional chart

 
Airport distance calculator
Flying to Beaver Lake Seaplane Base? Find the distance to fly.

From to D71

Sunrise and sunset
Times for 20-Feb-2019
 Local
(UTC-9)
 Zulu
(UTC)
Morning civil twilight07:4416:44
Sunrise08:2917:29
Sunset17:5702:57
Evening civil twilight18:4303:43

Current date and time
Zulu (UTC)  20-Feb-2019 20:44:24
Local (UTC-9)  20-Feb-2019 11:44:24
 
METAR
PABV 
13nm SE 
202003Z AUTO 00000KT 9SM -SN OVC110 M09/M10 A3010 RMK AO2 P0000 FZRANO
PAFR 
19nm S 
201958Z AUTO 00000KT 10SM OVC075 M10/M11 A3005 RMK AO2 SLP189 T10971107
PAED 
20nm S 
201956Z AUTO 00000KT 10SM OVC070 M09/M10 A3008 RMK AO2 SLP185 T10891098
PAMR 
22nm S 
201953Z 35003KT 10SM OVC080 M08/M12 A3009 RMK AO2 SNB08E26 SLP192 P0000 T10831117
PAAQ 
22nm E 
201953Z 00000KT 10SM BKN110 M10/M11 A3005 RMK AO2 PRESFR SLP184 T11001111
PALH 
24nm S 
201953Z 03004KT 10SM OVC075 M08/M11 A3010 RMK AO2 SLP195 T10831111
TAF
PAED 
20nm S 
201900Z 2019/2201 06006KT 9999 BKN070 620703 QNH3005INS BECMG 2022/2023 07006KT 9999 VCSH BKN015 610159 QNH3000INS BECMG 2100/2101 05009KT 3200 -SN BKN007 OVC015 610079 QNH2995INS BECMG 2108/2109 35009KT 1600 -SN BKN007 OVC015 610079 QNH2963INS TEMPO 2110/2116 0800 SN BECMG 2115/2116 VRB06KT 8000 -SN BKN007 OVC015 610079 QNH2963INS BECMG 2117/2118 VRB06KT 9999 NSW SCT010 BKN100 QNH2967INS TXM04/2102Z TNM09/2019Z
PAAQ 
22nm E 
201736Z 2018/2118 VRB02KT P6SM OVC250 FM202200 02005KT P6SM VCSH SCT020 BKN035 FM210100 36005KT 2SM -SN BR BKN020 OVC030 FM211500 02010KT 6SM -SN BR BKN035 OVC050
NOTAMs
Click for the latest NOTAMs
NOTAMs are issued by the DoD/FAA and will open in a separate window not controlled by AirNav.

 

 
 

Would you like to see your business listed on this page?

 If your business provides an interesting product or service to pilots, flight crews, aircraft, or users of the Beaver Lake Seaplane Base, you should consider listing it here.  To start the listing process, click on the button below
 
Add a business
 

Other Pages about Beaver Lake Seaplane Base

Update a link
 
Copyright © AirNav, LLC. All rights reserved. Privacy Policy  Contact